sensor_id;sensor_type;location;lat;lon;timestamp;temperature;humidity
23207;DHT22;11773;52.570;13.052;2023-02-28T00:00:11;2.70;99.90
23207;DHT22;11773;52.570;13.052;2023-02-28T00:02:43;2.70;99.90
23207;DHT22;11773;52.570;13.052;2023-02-28T00:05:15;2.70;99.90
23207;DHT22;11773;52.570;13.052;2023-02-28T00:07:47;2.70;99.90
23207;DHT22;11773;52.570;13.052;2023-02-28T00:10:25;2.70;99.90
23207;DHT22;11773;52.570;13.052;2023-02-28T00:12:51;2.80;99.90
23207;DHT22;11773;52.570;13.052;2023-02-28T00:15:24;2.80;99.90
23207;DHT22;11773;52.570;13.052;2023-02-28T00:17:53;2.80;99.90
23207;DHT22;11773;52.570;13.052;2023-02-28T00:20:23;2.80;99.90
23207;DHT22;11773;52.570;13.052;2023-02-28T00:22:54;2.80;99.90
23207;DHT22;11773;52.570;13.052;2023-02-28T00:25:25;2.70;99.90
23207;DHT22;11773;52.570;13.052;2023-02-28T00:27:54;2.70;99.90
23207;DHT22;11773;52.570;13.052;2023-02-28T00:30:24;2.70;99.90
23207;DHT22;11773;52.570;13.052;2023-02-28T00:32:53;2.70;99.90
23207;DHT22;11773;52.570;13.052;2023-02-28T00:35:23;2.70;99.90
23207;DHT22;11773;52.570;13.052;2023-02-28T00:37:52;2.60;99.90
23207;DHT22;11773;52.570;13.052;2023-02-28T00:40:22;2.70;99.90
23207;DHT22;11773;52.570;13.052;2023-02-28T00:42:51;2.60;99.90
23207;DHT22;11773;52.570;13.052;2023-02-28T00:45:20;2.60;99.90
23207;DHT22;11773;52.570;13.052;2023-02-28T00:47:50;2.60;99.90
23207;DHT22;11773;52.570;13.052;2023-02-28T00:50:20;2.60;99.90
23207;DHT22;11773;52.570;13.052;2023-02-28T00:52:49;2.50;99.90
23207;DHT22;11773;52.570;13.052;2023-02-28T00:55:19;2.40;99.90
23207;DHT22;11773;52.570;13.052;2023-02-28T00:57:48;2.40;99.90
23207;DHT22;11773;52.570;13.052;2023-02-28T01:00:18;2.30;99.90
23207;DHT22;11773;52.570;13.052;2023-02-28T01:02:48;2.20;99.90
23207;DHT22;11773;52.570;13.052;2023-02-28T01:05:17;2.20;99.90
23207;DHT22;11773;52.570;13.052;2023-02-28T01:07:47;2.30;99.90
23207;DHT22;11773;52.570;13.052;2023-02-28T01:10:16;2.30;99.90
23207;DHT22;11773;52.570;13.052;2023-02-28T01:12:46;2.30;99.90
23207;DHT22;11773;52.570;13.052;2023-02-28T01:15:15;2.10;99.90
23207;DHT22;11773;52.570;13.052;2023-02-28T01:17:45;2.10;99.90
23207;DHT22;11773;52.570;13.052;2023-02-28T01:20:14;2.10;99.90
23207;DHT22;11773;52.570;13.052;2023-02-28T01:22:43;2.00;99.90
23207;DHT22;11773;52.570;13.052;2023-02-28T01:25:14;2.10;99.90
23207;DHT22;11773;52.570;13.052;2023-02-28T01:27:43;2.10;99.90
23207;DHT22;11773;52.570;13.052;2023-02-28T01:30:13;2.00;99.90
23207;DHT22;11773;52.570;13.052;2023-02-28T01:32:42;2.00;99.90
23207;DHT22;11773;52.570;13.052;2023-02-28T01:35:12;2.00;99.90
23207;DHT22;11773;52.570;13.052;2023-02-28T01:37:41;1.90;99.90
23207;DHT22;11773;52.570;13.052;2023-02-28T01:40:11;2.00;99.90
23207;DHT22;11773;52.570;13.052;2023-02-28T01:42:41;1.80;99.90
23207;DHT22;11773;52.570;13.052;2023-02-28T01:45:28;1.80;99.90
23207;DHT22;11773;52.570;13.052;2023-02-28T01:48:02;1.80;99.90
23207;DHT22;11773;52.570;13.052;2023-02-28T01:50:38;1.80;99.90
23207;DHT22;11773;52.570;13.052;2023-02-28T01:53:13;1.80;99.90
23207;DHT22;11773;52.570;13.052;2023-02-28T01:55:47;1.70;99.90
23207;DHT22;11773;52.570;13.052;2023-02-28T01:58:18;1.70;99.90
23207;DHT22;11773;52.570;13.052;2023-02-28T02:00:48;1.70;99.90
23207;DHT22;11773;52.570;13.052;2023-02-28T02:03:19;1.70;99.90
23207;DHT22;11773;52.570;13.052;2023-02-28T02:05:49;1.70;99.90
23207;DHT22;11773;52.570;13.052;2023-02-28T02:08:24;1.70;99.90
23207;DHT22;11773;52.570;13.052;2023-02-28T02:11:02;1.70;99.90
23207;DHT22;11773;52.570;13.052;2023-02-28T02:13:53;1.70;99.90
23207;DHT22;11773;52.570;13.052;2023-02-28T02:16:44;1.70;99.90
23207;DHT22;11773;52.570;13.052;2023-02-28T02:19:37;1.50;99.90
23207;DHT22;11773;52.570;13.052;2023-02-28T02:22:50;1.60;99.90
23207;DHT22;11773;52.570;13.052;2023-02-28T02:25:40;1.60;99.90
23207;DHT22;11773;52.570;13.052;2023-02-28T02:34:36;1.40;99.90
23207;DHT22;11773;52.570;13.052;2023-02-28T02:37:25;1.40;99.90
23207;DHT22;11773;52.570;13.052;2023-02-28T02:40:20;1.30;99.90
23207;DHT22;11773;52.570;13.052;2023-02-28T02:43:06;1.40;99.90
23207;DHT22;11773;52.570;13.052;2023-02-28T02:48:29;1.30;99.90
23207;DHT22;11773;52.570;13.052;2023-02-28T02:51:04;1.20;99.90
23207;DHT22;11773;52.570;13.052;2023-02-28T02:53:41;1.30;99.90
23207;DHT22;11773;52.570;13.052;2023-02-28T02:56:12;1.20;99.90
23207;DHT22;11773;52.570;13.052;2023-02-28T02:58:44;1.20;99.90
23207;DHT22;11773;52.570;13.052;2023-02-28T03:01:20;1.20;99.90
23207;DHT22;11773;52.570;13.052;2023-02-28T03:03:52;1.20;99.90
23207;DHT22;11773;52.570;13.052;2023-02-28T03:06:29;1.20;99.90
23207;DHT22;11773;52.570;13.052;2023-02-28T03:09:00;1.30;99.90
23207;DHT22;11773;52.570;13.052;2023-02-28T03:11:30;1.20;99.90
23207;DHT22;11773;52.570;13.052;2023-02-28T03:14:15;1.20;99.90
23207;DHT22;11773;52.570;13.052;2023-02-28T03:16:59;1.10;99.90
23207;DHT22;11773;52.570;13.052;2023-02-28T03:22:41;1.10;99.90
23207;DHT22;11773;52.570;13.052;2023-02-28T03:28:04;1.10;99.90
23207;DHT22;11773;52.570;13.052;2023-02-28T03:33:30;1.00;99.90
23207;DHT22;11773;52.570;13.052;2023-02-28T03:36:04;1.10;99.90
23207;DHT22;11773;52.570;13.052;2023-02-28T03:38:41;1.00;99.90
23207;DHT22;11773;52.570;13.052;2023-02-28T03:41:28;1.00;99.90
23207;DHT22;11773;52.570;13.052;2023-02-28T03:44:04;1.00;99.90
23207;DHT22;11773;52.570;13.052;2023-02-28T03:46:51;0.90;99.90
23207;DHT22;11773;52.570;13.052;2023-02-28T03:49:30;0.90;99.90
23207;DHT22;11773;52.570;13.052;2023-02-28T03:52:04;0.90;99.90
23207;DHT22;11773;52.570;13.052;2023-02-28T03:54:41;1.00;99.90
23207;DHT22;11773;52.570;13.052;2023-02-28T04:00:14;0.80;99.90
23207;DHT22;11773;52.570;13.052;2023-02-28T04:02:54;0.90;99.90
23207;DHT22;11773;52.570;13.052;2023-02-28T04:05:24;0.90;99.90
23207;DHT22;11773;52.570;13.052;2023-02-28T04:08:03;0.90;99.90
23207;DHT22;11773;52.570;13.052;2023-02-28T04:10:34;0.50;99.90
23207;DHT22;11773;52.570;13.052;2023-02-28T04:13:03;0.70;99.90
23207;DHT22;11773;52.570;13.052;2023-02-28T04:15:33;0.70;99.90
23207;DHT22;11773;52.570;13.052;2023-02-28T04:18:02;0.70;99.90
23207;DHT22;11773;52.570;13.052;2023-02-28T04:20:32;0.70;99.90
23207;DHT22;11773;52.570;13.052;2023-02-28T04:23:01;0.60;99.90
23207;DHT22;11773;52.570;13.052;2023-02-28T04:25:31;0.70;99.90
23207;DHT22;11773;52.570;13.052;2023-02-28T04:28:00;0.60;99.90
23207;DHT22;11773;52.570;13.052;2023-02-28T04:30:30;0.50;99.90
23207;DHT22;11773;52.570;13.052;2023-02-28T04:33:01;0.60;99.90
23207;DHT22;11773;52.570;13.052;2023-02-28T04:35:30;0.50;99.90
23207;DHT22;11773;52.570;13.052;2023-02-28T04:38:00;0.50;99.90
23207;DHT22;11773;52.570;13.052;2023-02-28T04:40:29;0.50;99.90
23207;DHT22;11773;52.570;13.052;2023-02-28T04:42:58;0.50;99.90
23207;DHT22;11773;52.570;13.052;2023-02-28T04:45:28;0.50;99.90
23207;DHT22;11773;52.570;13.052;2023-02-28T04:47:59;0.40;99.90
23207;DHT22;11773;52.570;13.052;2023-02-28T04:50:29;0.60;99.90
23207;DHT22;11773;52.570;13.052;2023-02-28T04:52:58;0.50;99.90
23207;DHT22;11773;52.570;13.052;2023-02-28T04:55:28;0.40;99.90
23207;DHT22;11773;52.570;13.052;2023-02-28T04:57:57;0.40;99.90
23207;DHT22;11773;52.570;13.052;2023-02-28T05:00:26;0.40;99.90
23207;DHT22;11773;52.570;13.052;2023-02-28T05:02:56;0.50;99.90
23207;DHT22;11773;52.570;13.052;2023-02-28T05:05:25;0.40;99.90
23207;DHT22;11773;52.570;13.052;2023-02-28T05:07:55;0.30;99.90
23207;DHT22;11773;52.570;13.052;2023-02-28T05:10:24;0.40;99.90
23207;DHT22;11773;52.570;13.052;2023-02-28T05:12:54;0.40;99.90
23207;DHT22;11773;52.570;13.052;2023-02-28T05:15:23;0.30;99.90
23207;DHT22;11773;52.570;13.052;2023-02-28T05:17:53;0.20;99.90
23207;DHT22;11773;52.570;13.052;2023-02-28T05:20:23;0.20;99.90
23207;DHT22;11773;52.570;13.052;2023-02-28T05:22:52;0.10;99.90
23207;DHT22;11773;52.570;13.052;2023-02-28T05:25:22;0.10;99.90
23207;DHT22;11773;52.570;13.052;2023-02-28T05:27:51;0.10;99.90
23207;DHT22;11773;52.570;13.052;2023-02-28T05:30:21;0.10;99.90
23207;DHT22;11773;52.570;13.052;2023-02-28T05:32:51;0.10;99.90
23207;DHT22;11773;52.570;13.052;2023-02-28T05:35:20;0.10;99.90
23207;DHT22;11773;52.570;13.052;2023-02-28T05:37:50;0.10;99.90
23207;DHT22;11773;52.570;13.052;2023-02-28T05:40:19;0.00;99.90
23207;DHT22;11773;52.570;13.052;2023-02-28T05:42:50;0.00;99.90
23207;DHT22;11773;52.570;13.052;2023-02-28T05:45:20;0.10;99.90
23207;DHT22;11773;52.570;13.052;2023-02-28T05:47:54;0.00;99.90
23207;DHT22;11773;52.570;13.052;2023-02-28T05:50:23;0.00;99.90
23207;DHT22;11773;52.570;13.052;2023-02-28T05:52:53;0.00;99.90
23207;DHT22;11773;52.570;13.052;2023-02-28T05:55:22;0.10;99.90
23207;DHT22;11773;52.570;13.052;2023-02-28T05:57:52;0.00;99.90
23207;DHT22;11773;52.570;13.052;2023-02-28T06:00:22;0.00;99.90
23207;DHT22;11773;52.570;13.052;2023-02-28T06:02:51;0.00;99.90
23207;DHT22;11773;52.570;13.052;2023-02-28T06:05:23;-0.10;99.90
23207;DHT22;11773;52.570;13.052;2023-02-28T06:07:52;-0.10;99.90
23207;DHT22;11773;52.570;13.052;2023-02-28T06:10:22;-0.10;99.90
23207;DHT22;11773;52.570;13.052;2023-02-28T06:12:51;-0.10;99.90
23207;DHT22;11773;52.570;13.052;2023-02-28T06:15:21;0.00;99.90
23207;DHT22;11773;52.570;13.052;2023-02-28T06:17:50;-0.10;99.90
23207;DHT22;11773;52.570;13.052;2023-02-28T06:20:20;0.00;99.90
23207;DHT22;11773;52.570;13.052;2023-02-28T06:22:49;0.00;99.90
23207;DHT22;11773;52.570;13.052;2023-02-28T06:25:19;0.00;99.90
23207;DHT22;11773;52.570;13.052;2023-02-28T06:27:49;0.00;99.90
23207;DHT22;11773;52.570;13.052;2023-02-28T06:30:18;-0.10;99.90
23207;DHT22;11773;52.570;13.052;2023-02-28T06:32:49;-0.10;99.90
23207;DHT22;11773;52.570;13.052;2023-02-28T06:35:19;0.10;99.90
23207;DHT22;11773;52.570;13.052;2023-02-28T06:37:49;0.30;99.90
23207;DHT22;11773;52.570;13.052;2023-02-28T06:40:18;0.70;99.90
23207;DHT22;11773;52.570;13.052;2023-02-28T06:42:48;0.70;99.90
23207;DHT22;11773;52.570;13.052;2023-02-28T06:45:17;0.40;99.90
23207;DHT22;11773;52.570;13.052;2023-02-28T06:47:47;0.60;99.90
23207;DHT22;11773;52.570;13.052;2023-02-28T06:50:18;0.70;99.90
23207;DHT22;11773;52.570;13.052;2023-02-28T06:52:48;0.80;99.90
23207;DHT22;11773;52.570;13.052;2023-02-28T06:55:19;1.30;99.90
23207;DHT22;11773;52.570;13.052;2023-02-28T06:57:48;1.50;99.90
23207;DHT22;11773;52.570;13.052;2023-02-28T07:00:18;1.70;99.90
23207;DHT22;11773;52.570;13.052;2023-02-28T07:02:48;1.80;99.90
23207;DHT22;11773;52.570;13.052;2023-02-28T07:05:17;1.70;99.90
23207;DHT22;11773;52.570;13.052;2023-02-28T07:07:46;1.70;99.90
23207;DHT22;11773;52.570;13.052;2023-02-28T07:10:16;1.60;99.90
23207;DHT22;11773;52.570;13.052;2023-02-28T07:12:47;1.40;99.90
23207;DHT22;11773;52.570;13.052;2023-02-28T07:15:16;1.40;99.90
23207;DHT22;11773;52.570;13.052;2023-02-28T07:17:46;1.40;99.90
23207;DHT22;11773;52.570;13.052;2023-02-28T07:20:15;1.50;99.90
23207;DHT22;11773;52.570;13.052;2023-02-28T07:22:45;1.60;99.90
23207;DHT22;11773;52.570;13.052;2023-02-28T07:25:16;1.60;99.90
23207;DHT22;11773;52.570;13.052;2023-02-28T07:27:45;1.40;99.90
23207;DHT22;11773;52.570;13.052;2023-02-28T07:30:15;1.40;99.90
23207;DHT22;11773;52.570;13.052;2023-02-28T07:32:45;1.30;99.90
23207;DHT22;11773;52.570;13.052;2023-02-28T07:35:15;1.30;99.90
23207;DHT22;11773;52.570;13.052;2023-02-28T07:37:44;1.30;99.90
23207;DHT22;11773;52.570;13.052;2023-02-28T07:40:14;1.40;99.90
23207;DHT22;11773;52.570;13.052;2023-02-28T07:42:45;1.40;99.90
23207;DHT22;11773;52.570;13.052;2023-02-28T07:45:14;1.50;99.90
23207;DHT22;11773;52.570;13.052;2023-02-28T07:47:45;1.50;99.90
23207;DHT22;11773;52.570;13.052;2023-02-28T07:50:15;1.50;99.90
23207;DHT22;11773;52.570;13.052;2023-02-28T07:52:45;1.50;99.90
23207;DHT22;11773;52.570;13.052;2023-02-28T07:55:14;1.60;99.90
23207;DHT22;11773;52.570;13.052;2023-02-28T07:57:44;1.70;99.90
23207;DHT22;11773;52.570;13.052;2023-02-28T08:00:13;1.70;99.90
23207;DHT22;11773;52.570;13.052;2023-02-28T08:02:43;1.70;99.90
23207;DHT22;11773;52.570;13.052;2023-02-28T08:05:13;1.90;99.90
23207;DHT22;11773;52.570;13.052;2023-02-28T08:07:42;1.90;99.90
23207;DHT22;11773;52.570;13.052;2023-02-28T08:10:12;2.00;99.90
23207;DHT22;11773;52.570;13.052;2023-02-28T08:12:41;2.00;99.90
23207;DHT22;11773;52.570;13.052;2023-02-28T08:15:11;2.10;99.90
23207;DHT22;11773;52.570;13.052;2023-02-28T08:17:40;2.20;99.90
23207;DHT22;11773;52.570;13.052;2023-02-28T08:20:10;2.30;99.90
23207;DHT22;11773;52.570;13.052;2023-02-28T08:22:41;2.30;99.90
23207;DHT22;11773;52.570;13.052;2023-02-28T08:25:12;2.40;99.90
23207;DHT22;11773;52.570;13.052;2023-02-28T08:27:41;2.50;99.90
23207;DHT22;11773;52.570;13.052;2023-02-28T08:30:13;2.50;99.90
23207;DHT22;11773;52.570;13.052;2023-02-28T08:32:43;2.50;99.90
23207;DHT22;11773;52.570;13.052;2023-02-28T08:35:13;2.60;99.90
23207;DHT22;11773;52.570;13.052;2023-02-28T08:37:43;2.60;99.90
23207;DHT22;11773;52.570;13.052;2023-02-28T08:40:12;2.70;99.90
23207;DHT22;11773;52.570;13.052;2023-02-28T08:42:45;2.80;99.90
23207;DHT22;11773;52.570;13.052;2023-02-28T08:45:15;2.80;99.90
23207;DHT22;11773;52.570;13.052;2023-02-28T08:47:44;3.00;99.90
23207;DHT22;11773;52.570;13.052;2023-02-28T08:50:14;3.10;99.90
23207;DHT22;11773;52.570;13.052;2023-02-28T08:52:44;3.20;99.90
23207;DHT22;11773;52.570;13.052;2023-02-28T08:55:13;3.30;99.90
23207;DHT22;11773;52.570;13.052;2023-02-28T08:57:43;3.30;99.90
23207;DHT22;11773;52.570;13.052;2023-02-28T09:00:13;3.40;99.90
23207;DHT22;11773;52.570;13.052;2023-02-28T09:02:42;3.50;99.90
23207;DHT22;11773;52.570;13.052;2023-02-28T09:05:12;3.50;99.90
23207;DHT22;11773;52.570;13.052;2023-02-28T09:07:41;3.60;99.90
23207;DHT22;11773;52.570;13.052;2023-02-28T09:10:11;3.60;99.90
23207;DHT22;11773;52.570;13.052;2023-02-28T09:12:40;3.70;99.90
23207;DHT22;11773;52.570;13.052;2023-02-28T09:15:10;3.90;99.90
23207;DHT22;11773;52.570;13.052;2023-02-28T09:17:40;3.90;99.90
23207;DHT22;11773;52.570;13.052;2023-02-28T09:20:12;4.00;99.90
23207;DHT22;11773;52.570;13.052;2023-02-28T09:22:41;4.10;99.90
23207;DHT22;11773;52.570;13.052;2023-02-28T09:25:10;4.10;99.90
23207;DHT22;11773;52.570;13.052;2023-02-28T09:27:40;4.20;99.90
23207;DHT22;11773;52.570;13.052;2023-02-28T09:30:10;4.20;99.90
23207;DHT22;11773;52.570;13.052;2023-02-28T09:32:40;4.20;99.90
23207;DHT22;11773;52.570;13.052;2023-02-28T09:35:09;4.30;99.90
23207;DHT22;11773;52.570;13.052;2023-02-28T09:37:41;4.40;99.90
23207;DHT22;11773;52.570;13.052;2023-02-28T09:40:11;4.40;99.90
23207;DHT22;11773;52.570;13.052;2023-02-28T09:42:42;4.50;99.90
23207;DHT22;11773;52.570;13.052;2023-02-28T09:45:28;4.50;99.90
23207;DHT22;11773;52.570;13.052;2023-02-28T09:48:20;4.50;99.90
23207;DHT22;11773;52.570;13.052;2023-02-28T09:50:48;4.70;99.90
23207;DHT22;11773;52.570;13.052;2023-02-28T09:53:28;4.70;99.90
23207;DHT22;11773;52.570;13.052;2023-02-28T09:56:11;4.80;99.90
23207;DHT22;11773;52.570;13.052;2023-02-28T10:01:49;4.80;99.90
23207;DHT22;11773;52.570;13.052;2023-02-28T10:04:54;4.80;99.90
23207;DHT22;11773;52.570;13.052;2023-02-28T10:10:51;4.80;99.90
23207;DHT22;11773;52.570;13.052;2023-02-28T10:13:32;4.90;99.90
23207;DHT22;11773;52.570;13.052;2023-02-28T10:16:08;4.90;99.90
23207;DHT22;11773;52.570;13.052;2023-02-28T10:18:52;4.80;99.90
23207;DHT22;11773;52.570;13.052;2023-02-28T10:21:38;5.00;99.90
23207;DHT22;11773;52.570;13.052;2023-02-28T10:24:30;5.10;99.90
23207;DHT22;11773;52.570;13.052;2023-02-28T10:27:18;5.10;99.90
23207;DHT22;11773;52.570;13.052;2023-02-28T10:29:54;5.20;99.90
23207;DHT22;11773;52.570;13.052;2023-02-28T10:32:30;5.20;99.90
23207;DHT22;11773;52.570;13.052;2023-02-28T10:35:09;5.20;99.90
23207;DHT22;11773;52.570;13.052;2023-02-28T10:37:50;5.30;99.90
23207;DHT22;11773;52.570;13.052;2023-02-28T10:42:57;5.50;99.90
23207;DHT22;11773;52.570;13.052;2023-02-28T10:45:34;5.60;99.90
23207;DHT22;11773;52.570;13.052;2023-02-28T10:48:23;5.60;99.90
23207;DHT22;11773;52.570;13.052;2023-02-28T10:53:30;5.70;99.90
23207;DHT22;11773;52.570;13.052;2023-02-28T10:56:17;5.70;99.90
23207;DHT22;11773;52.570;13.052;2023-02-28T11:01:57;5.80;99.90
23207;DHT22;11773;52.570;13.052;2023-02-28T11:04:36;5.90;99.90
23207;DHT22;11773;52.570;13.052;2023-02-28T11:07:23;5.90;99.90
23207;DHT22;11773;52.570;13.052;2023-02-28T11:09:58;5.90;99.90
23207;DHT22;11773;52.570;13.052;2023-02-28T11:12:30;5.90;99.90
23207;DHT22;11773;52.570;13.052;2023-02-28T11:18:23;6.10;99.90
23207;DHT22;11773;52.570;13.052;2023-02-28T11:20:57;6.10;99.90
23207;DHT22;11773;52.570;13.052;2023-02-28T11:23:31;6.00;99.90
23207;DHT22;11773;52.570;13.052;2023-02-28T11:26:05;6.10;99.90
23207;DHT22;11773;52.570;13.052;2023-02-28T11:28:42;6.10;99.90
23207;DHT22;11773;52.570;13.052;2023-02-28T11:31:15;6.30;99.90
23207;DHT22;11773;52.570;13.052;2023-02-28T11:33:54;6.20;99.90
23207;DHT22;11773;52.570;13.052;2023-02-28T11:36:30;6.20;99.90
23207;DHT22;11773;52.570;13.052;2023-02-28T11:39:04;6.30;99.90
23207;DHT22;11773;52.570;13.052;2023-02-28T11:42:05;6.40;99.90
23207;DHT22;11773;52.570;13.052;2023-02-28T11:44:48;6.30;99.90
23207;DHT22;11773;52.570;13.052;2023-02-28T11:47:45;6.30;99.90
23207;DHT22;11773;52.570;13.052;2023-02-28T11:50:38;6.30;99.90
23207;DHT22;11773;52.570;13.052;2023-02-28T11:53:44;6.40;99.90
23207;DHT22;11773;52.570;13.052;2023-02-28T11:56:20;6.30;99.90
23207;DHT22;11773;52.570;13.052;2023-02-28T11:59:13;6.30;99.90
23207;DHT22;11773;52.570;13.052;2023-02-28T12:02:24;6.40;99.90
23207;DHT22;11773;52.570;13.052;2023-02-28T12:05:23;6.40;99.90
23207;DHT22;11773;52.570;13.052;2023-02-28T12:08:09;6.40;99.90
23207;DHT22;11773;52.570;13.052;2023-02-28T12:11:13;6.40;99.90
23207;DHT22;11773;52.570;13.052;2023-02-28T12:14:13;6.50;99.90
23207;DHT22;11773;52.570;13.052;2023-02-28T12:19:58;6.30;99.90
23207;DHT22;11773;52.570;13.052;2023-02-28T12:22:31;6.40;99.90
23207;DHT22;11773;52.570;13.052;2023-02-28T12:28:11;6.70;99.90
23207;DHT22;11773;52.570;13.052;2023-02-28T12:31:33;6.60;99.90
23207;DHT22;11773;52.570;13.052;2023-02-28T12:33:22;6.60;99.90
23207;DHT22;11773;52.570;13.052;2023-02-28T12:36:00;6.50;99.90
23207;DHT22;11773;52.570;13.052;2023-02-28T12:38:41;6.50;99.90
23207;DHT22;11773;52.570;13.052;2023-02-28T12:41:14;6.50;99.90
23207;DHT22;11773;52.570;13.052;2023-02-28T12:43:48;6.60;99.90
23207;DHT22;11773;52.570;13.052;2023-02-28T12:46:32;6.50;99.90
23207;DHT22;11773;52.570;13.052;2023-02-28T12:49:08;6.60;99.90
23207;DHT22;11773;52.570;13.052;2023-02-28T12:51:39;6.50;99.90
23207;DHT22;11773;52.570;13.052;2023-02-28T12:54:32;6.70;99.90
23207;DHT22;11773;52.570;13.052;2023-02-28T13:00:01;6.70;99.90
23207;DHT22;11773;52.570;13.052;2023-02-28T13:05:58;6.60;99.90
23207;DHT22;11773;52.570;13.052;2023-02-28T13:08:59;6.70;99.90
23207;DHT22;11773;52.570;13.052;2023-02-28T13:11:31;6.60;99.90
23207;DHT22;11773;52.570;13.052;2023-02-28T13:14:06;6.70;99.90
23207;DHT22;11773;52.570;13.052;2023-02-28T13:17:09;6.70;99.90
23207;DHT22;11773;52.570;13.052;2023-02-28T13:19:43;6.70;99.90
23207;DHT22;11773;52.570;13.052;2023-02-28T13:22:18;6.70;99.90
23207;DHT22;11773;52.570;13.052;2023-02-28T13:24:56;6.80;99.90
23207;DHT22;11773;52.570;13.052;2023-02-28T13:27:42;6.70;99.90
23207;DHT22;11773;52.570;13.052;2023-02-28T13:33:26;6.80;99.90
23207;DHT22;11773;52.570;13.052;2023-02-28T13:38:54;6.80;99.90
23207;DHT22;11773;52.570;13.052;2023-02-28T13:44:23;6.90;99.90
23207;DHT22;11773;52.570;13.052;2023-02-28T13:49:29;6.90;99.90
23207;DHT22;11773;52.570;13.052;2023-02-28T13:52:14;6.90;99.90
23207;DHT22;11773;52.570;13.052;2023-02-28T13:55:12;6.90;99.90
23207;DHT22;11773;52.570;13.052;2023-02-28T13:58:05;6.80;99.90
23207;DHT22;11773;52.570;13.052;2023-02-28T14:06:54;6.80;99.90
23207;DHT22;11773;52.570;13.052;2023-02-28T14:09:34;6.70;99.90
23207;DHT22;11773;52.570;13.052;2023-02-28T14:15:55;6.90;99.90
23207;DHT22;11773;52.570;13.052;2023-02-28T14:18:39;6.90;99.90
23207;DHT22;11773;52.570;13.052;2023-02-28T14:21:11;6.70;99.90
23207;DHT22;11773;52.570;13.052;2023-02-28T14:36:14;6.70;99.90
23207;DHT22;11773;52.570;13.052;2023-02-28T14:38:52;6.80;99.90
23207;DHT22;11773;52.570;13.052;2023-02-28T14:41:36;6.70;99.90
23207;DHT22;11773;52.570;13.052;2023-02-28T14:44:22;6.60;99.90
23207;DHT22;11773;52.570;13.052;2023-02-28T14:46:55;6.70;99.90
23207;DHT22;11773;52.570;13.052;2023-02-28T14:49:28;6.70;99.90
23207;DHT22;11773;52.570;13.052;2023-02-28T14:52:17;6.70;99.90
23207;DHT22;11773;52.570;13.052;2023-02-28T14:54:58;6.70;99.90
23207;DHT22;11773;52.570;13.052;2023-02-28T14:57:33;6.70;99.90
23207;DHT22;11773;52.570;13.052;2023-02-28T15:00:21;6.60;99.90
23207;DHT22;11773;52.570;13.052;2023-02-28T15:02:52;6.70;99.90
23207;DHT22;11773;52.570;13.052;2023-02-28T15:05:34;6.70;99.90
23207;DHT22;11773;52.570;13.052;2023-02-28T15:08:12;6.70;99.90
23207;DHT22;11773;52.570;13.052;2023-02-28T15:10:53;6.70;99.90
23207;DHT22;11773;52.570;13.052;2023-02-28T15:13:50;6.80;99.90
23207;DHT22;11773;52.570;13.052;2023-02-28T15:16:22;6.70;99.90
23207;DHT22;11773;52.570;13.052;2023-02-28T15:19:14;6.60;99.90
23207;DHT22;11773;52.570;13.052;2023-02-28T15:21:52;6.70;99.90
23207;DHT22;11773;52.570;13.052;2023-02-28T15:24:46;6.60;99.90
23207;DHT22;11773;52.570;13.052;2023-02-28T15:27:29;6.60;99.90
23207;DHT22;11773;52.570;13.052;2023-02-28T15:30:06;6.60;99.90
23207;DHT22;11773;52.570;13.052;2023-02-28T15:32:38;6.50;99.90
23207;DHT22;11773;52.570;13.052;2023-02-28T15:37:58;6.50;99.90
23207;DHT22;11773;52.570;13.052;2023-02-28T15:40:38;6.50;99.90
23207;DHT22;11773;52.570;13.052;2023-02-28T15:43:18;6.50;99.90
23207;DHT22;11773;52.570;13.052;2023-02-28T15:46:03;6.50;99.90
23207;DHT22;11773;52.570;13.052;2023-02-28T15:49:02;6.60;99.90
23207;DHT22;11773;52.570;13.052;2023-02-28T15:51:20;6.30;99.90
23207;DHT22;11773;52.570;13.052;2023-02-28T15:54:00;6.40;99.90
23207;DHT22;11773;52.570;13.052;2023-02-28T15:56:34;6.30;99.90
23207;DHT22;11773;52.570;13.052;2023-02-28T15:59:07;6.40;99.90
23207;DHT22;11773;52.570;13.052;2023-02-28T16:01:39;6.30;99.90
23207;DHT22;11773;52.570;13.052;2023-02-28T16:04:17;6.30;99.90
23207;DHT22;11773;52.570;13.052;2023-02-28T16:07:06;6.20;99.90
23207;DHT22;11773;52.570;13.052;2023-02-28T16:09:36;6.20;99.90
23207;DHT22;11773;52.570;13.052;2023-02-28T16:12:08;6.20;99.90
23207;DHT22;11773;52.570;13.052;2023-02-28T16:14:39;6.10;99.90
23207;DHT22;11773;52.570;13.052;2023-02-28T16:17:16;6.20;99.90
23207;DHT22;11773;52.570;13.052;2023-02-28T16:19:51;6.10;99.90
23207;DHT22;11773;52.570;13.052;2023-02-28T16:22:21;6.00;99.90
23207;DHT22;11773;52.570;13.052;2023-02-28T16:24:51;6.00;99.90
23207;DHT22;11773;52.570;13.052;2023-02-28T16:27:31;5.90;99.90
23207;DHT22;11773;52.570;13.052;2023-02-28T16:30:05;5.90;99.90
23207;DHT22;11773;52.570;13.052;2023-02-28T16:32:35;5.80;99.90
23207;DHT22;11773;52.570;13.052;2023-02-28T16:35:06;5.80;99.90
23207;DHT22;11773;52.570;13.052;2023-02-28T16:37:38;5.80;99.90
23207;DHT22;11773;52.570;13.052;2023-02-28T16:40:14;5.80;99.90
23207;DHT22;11773;52.570;13.052;2023-02-28T16:42:45;5.60;99.90
23207;DHT22;11773;52.570;13.052;2023-02-28T16:45:23;5.70;99.90
23207;DHT22;11773;52.570;13.052;2023-02-28T16:47:54;5.70;99.90
23207;DHT22;11773;52.570;13.052;2023-02-28T16:50:29;5.60;99.90
23207;DHT22;11773;52.570;13.052;2023-02-28T16:53:02;5.40;99.90
23207;DHT22;11773;52.570;13.052;2023-02-28T16:55:31;5.40;99.90
23207;DHT22;11773;52.570;13.052;2023-02-28T16:58:03;5.30;99.90
23207;DHT22;11773;52.570;13.052;2023-02-28T17:00:33;5.30;99.90
23207;DHT22;11773;52.570;13.052;2023-02-28T17:03:03;5.20;99.90
23207;DHT22;11773;52.570;13.052;2023-02-28T17:05:36;5.10;99.90
23207;DHT22;11773;52.570;13.052;2023-02-28T17:08:08;5.10;99.90
23207;DHT22;11773;52.570;13.052;2023-02-28T17:10:38;5.10;99.90
23207;DHT22;11773;52.570;13.052;2023-02-28T17:13:07;5.00;99.90
23207;DHT22;11773;52.570;13.052;2023-02-28T17:15:39;5.00;99.90
23207;DHT22;11773;52.570;13.052;2023-02-28T17:18:18;4.90;99.90
23207;DHT22;11773;52.570;13.052;2023-02-28T17:20:43;4.90;99.90
23207;DHT22;11773;52.570;13.052;2023-02-28T17:23:13;4.90;99.90
23207;DHT22;11773;52.570;13.052;2023-02-28T17:25:43;4.90;99.90
23207;DHT22;11773;52.570;13.052;2023-02-28T17:28:14;4.80;99.90
23207;DHT22;11773;52.570;13.052;2023-02-28T17:30:43;4.80;99.90
23207;DHT22;11773;52.570;13.052;2023-02-28T17:33:15;5.10;99.90
23207;DHT22;11773;52.570;13.052;2023-02-28T17:35:44;4.80;99.90
23207;DHT22;11773;52.570;13.052;2023-02-28T17:38:18;4.80;99.90
23207;DHT22;11773;52.570;13.052;2023-02-28T17:40:50;4.70;99.90
23207;DHT22;11773;52.570;13.052;2023-02-28T17:43:21;4.70;99.90